sensor_id;sensor_type;location;lat;lon;timestamp;P1;durP1;ratioP1;P2;durP2;ratioP2
11346;SDS011;5728;42.722;23.258;2022-10-31T00:02:23;7.37;;;3.73;;
11346;SDS011;5728;42.722;23.258;2022-10-31T00:04:49;4.53;;;3.33;;
11346;SDS011;5728;42.722;23.258;2022-10-31T00:07:16;5.87;;;4.27;;
11346;SDS011;5728;42.722;23.258;2022-10-31T00:09:44;9.30;;;3.93;;
11346;SDS011;5728;42.722;23.258;2022-10-31T00:12:11;4.93;;;3.80;;
11346;SDS011;5728;42.722;23.258;2022-10-31T00:14:38;6.73;;;4.07;;
11346;SDS011;5728;42.722;23.258;2022-10-31T00:17:04;8.13;;;4.50;;
11346;SDS011;5728;42.722;23.258;2022-10-31T00:19:31;7.90;;;4.20;;
11346;SDS011;5728;42.722;23.258;2022-10-31T00:21:58;5.10;;;3.67;;
11346;SDS011;5728;42.722;23.258;2022-10-31T00:24:24;10.67;;;4.67;;
11346;SDS011;5728;42.722;23.258;2022-10-31T00:26:52;5.47;;;3.70;;
11346;SDS011;5728;42.722;23.258;2022-10-31T00:29:19;6.63;;;4.43;;
11346;SDS011;5728;42.722;23.258;2022-10-31T00:31:46;10.77;;;4.47;;
11346;SDS011;5728;42.722;23.258;2022-10-31T00:34:12;6.07;;;3.73;;
11346;SDS011;5728;42.722;23.258;2022-10-31T00:36:39;6.60;;;3.63;;
11346;SDS011;5728;42.722;23.258;2022-10-31T00:39:06;7.13;;;4.60;;
11346;SDS011;5728;42.722;23.258;2022-10-31T00:41:32;5.37;;;3.90;;
11346;SDS011;5728;42.722;23.258;2022-10-31T00:44:01;6.77;;;3.80;;
11346;SDS011;5728;42.722;23.258;2022-10-31T00:46:27;3.90;;;3.10;;
11346;SDS011;5728;42.722;23.258;2022-10-31T00:48:54;8.70;;;3.80;;
11346;SDS011;5728;42.722;23.258;2022-10-31T00:51:21;5.77;;;3.70;;
11346;SDS011;5728;42.722;23.258;2022-10-31T00:53:47;7.70;;;4.03;;
11346;SDS011;5728;42.722;23.258;2022-10-31T00:56:14;5.73;;;3.70;;
11346;SDS011;5728;42.722;23.258;2022-10-31T00:58:41;7.77;;;4.53;;
11346;SDS011;5728;42.722;23.258;2022-10-31T01:01:09;7.40;;;3.70;;
11346;SDS011;5728;42.722;23.258;2022-10-31T01:03:35;5.30;;;4.00;;
11346;SDS011;5728;42.722;23.258;2022-10-31T01:06:04;5.63;;;3.97;;
11346;SDS011;5728;42.722;23.258;2022-10-31T01:08:32;6.20;;;3.77;;
11346;SDS011;5728;42.722;23.258;2022-10-31T01:11:00;6.83;;;4.37;;
11346;SDS011;5728;42.722;23.258;2022-10-31T01:13:29;3.73;;;2.80;;
11346;SDS011;5728;42.722;23.258;2022-10-31T01:15:56;8.57;;;3.77;;
11346;SDS011;5728;42.722;23.258;2022-10-31T01:18:25;7.47;;;3.97;;
11346;SDS011;5728;42.722;23.258;2022-10-31T01:20:58;7.87;;;4.83;;
11346;SDS011;5728;42.722;23.258;2022-10-31T01:23:26;8.50;;;4.10;;
11346;SDS011;5728;42.722;23.258;2022-10-31T01:26:00;11.37;;;4.10;;
11346;SDS011;5728;42.722;23.258;2022-10-31T01:28:29;10.27;;;4.63;;
11346;SDS011;5728;42.722;23.258;2022-10-31T01:30:55;7.13;;;4.55;;
11346;SDS011;5728;42.722;23.258;2022-10-31T01:33:28;8.43;;;4.20;;
11346;SDS011;5728;42.722;23.258;2022-10-31T01:35:54;10.60;;;4.80;;
11346;SDS011;5728;42.722;23.258;2022-10-31T01:38:21;8.37;;;5.10;;
11346;SDS011;5728;42.722;23.258;2022-10-31T01:40:48;8.40;;;4.37;;
11346;SDS011;5728;42.722;23.258;2022-10-31T01:43:15;9.13;;;5.13;;
11346;SDS011;5728;42.722;23.258;2022-10-31T01:45:43;6.53;;;3.97;;
11346;SDS011;5728;42.722;23.258;2022-10-31T01:48:15;11.37;;;4.83;;
11346;SDS011;5728;42.722;23.258;2022-10-31T01:50:47;4.93;;;4.17;;
11346;SDS011;5728;42.722;23.258;2022-10-31T01:53:17;6.97;;;4.63;;
11346;SDS011;5728;42.722;23.258;2022-10-31T01:55:45;5.10;;;3.90;;
11346;SDS011;5728;42.722;23.258;2022-10-31T01:58:14;10.40;;;5.23;;
11346;SDS011;5728;42.722;23.258;2022-10-31T02:00:45;9.20;;;4.60;;
11346;SDS011;5728;42.722;23.258;2022-10-31T02:03:16;10.47;;;5.17;;
11346;SDS011;5728;42.722;23.258;2022-10-31T02:05:43;7.70;;;4.90;;
11346;SDS011;5728;42.722;23.258;2022-10-31T02:08:12;10.80;;;5.17;;
11346;SDS011;5728;42.722;23.258;2022-10-31T02:10:43;9.40;;;4.27;;
11346;SDS011;5728;42.722;23.258;2022-10-31T02:13:10;10.07;;;4.43;;
11346;SDS011;5728;42.722;23.258;2022-10-31T02:15:39;10.40;;;5.27;;
11346;SDS011;5728;42.722;23.258;2022-10-31T02:18:07;8.67;;;5.10;;
11346;SDS011;5728;42.722;23.258;2022-10-31T02:20:37;9.17;;;4.63;;
11346;SDS011;5728;42.722;23.258;2022-10-31T02:23:26;8.30;;;5.17;;
11346;SDS011;5728;42.722;23.258;2022-10-31T02:32:23;9.57;;;5.07;;
11346;SDS011;5728;42.722;23.258;2022-10-31T02:34:57;8.80;;;5.30;;
11346;SDS011;5728;42.722;23.258;2022-10-31T02:37:33;7.88;;;4.30;;
11346;SDS011;5728;42.722;23.258;2022-10-31T02:40:10;8.23;;;5.47;;
11346;SDS011;5728;42.722;23.258;2022-10-31T02:42:46;8.97;;;5.47;;
11346;SDS011;5728;42.722;23.258;2022-10-31T02:45:21;11.27;;;4.67;;
11346;SDS011;5728;42.722;23.258;2022-10-31T02:47:55;9.90;;;5.17;;
11346;SDS011;5728;42.722;23.258;2022-10-31T02:50:26;7.43;;;5.67;;
11346;SDS011;5728;42.722;23.258;2022-10-31T02:52:56;10.03;;;5.20;;
11346;SDS011;5728;42.722;23.258;2022-10-31T02:58:17;7.55;;;5.13;;
11346;SDS011;5728;42.722;23.258;2022-10-31T03:00:51;10.30;;;5.00;;
11346;SDS011;5728;42.722;23.258;2022-10-31T03:03:33;9.10;;;5.55;;
11346;SDS011;5728;42.722;23.258;2022-10-31T03:06:06;8.63;;;5.35;;
11346;SDS011;5728;42.722;23.258;2022-10-31T03:08:41;8.18;;;5.57;;
11346;SDS011;5728;42.722;23.258;2022-10-31T03:11:12;10.52;;;5.85;;
11346;SDS011;5728;42.722;23.258;2022-10-31T03:13:39;8.15;;;5.60;;
11346;SDS011;5728;42.722;23.258;2022-10-31T03:16:13;8.73;;;5.78;;
11346;SDS011;5728;42.722;23.258;2022-10-31T03:18:44;9.63;;;5.80;;
11346;SDS011;5728;42.722;23.258;2022-10-31T03:21:18;8.40;;;5.80;;
11346;SDS011;5728;42.722;23.258;2022-10-31T03:23:50;11.03;;;6.23;;
11346;SDS011;5728;42.722;23.258;2022-10-31T03:26:18;12.27;;;6.30;;
11346;SDS011;5728;42.722;23.258;2022-10-31T03:28:49;8.48;;;5.78;;
11346;SDS011;5728;42.722;23.258;2022-10-31T03:31:19;9.63;;;5.40;;
11346;SDS011;5728;42.722;23.258;2022-10-31T03:33:54;12.18;;;6.68;;
11346;SDS011;5728;42.722;23.258;2022-10-31T03:36:24;10.15;;;6.32;;
11346;SDS011;5728;42.722;23.258;2022-10-31T03:38:53;8.10;;;5.93;;
11346;SDS011;5728;42.722;23.258;2022-10-31T03:41:22;8.98;;;6.25;;
11346;SDS011;5728;42.722;23.258;2022-10-31T03:43:54;11.47;;;6.83;;
11346;SDS011;5728;42.722;23.258;2022-10-31T03:46:24;10.90;;;7.15;;
11346;SDS011;5728;42.722;23.258;2022-10-31T03:48:53;8.13;;;6.57;;
11346;SDS011;5728;42.722;23.258;2022-10-31T03:51:22;12.40;;;6.70;;
11346;SDS011;5728;42.722;23.258;2022-10-31T03:53:56;18.20;;;6.97;;
11346;SDS011;5728;42.722;23.258;2022-10-31T03:56:29;11.83;;;7.83;;
11346;SDS011;5728;42.722;23.258;2022-10-31T03:59:02;15.10;;;7.07;;
11346;SDS011;5728;42.722;23.258;2022-10-31T04:01:32;9.93;;;6.47;;
11346;SDS011;5728;42.722;23.258;2022-10-31T04:04:10;15.27;;;6.50;;
11346;SDS011;5728;42.722;23.258;2022-10-31T04:06:38;11.03;;;7.03;;
11346;SDS011;5728;42.722;23.258;2022-10-31T04:09:07;12.07;;;7.33;;
11346;SDS011;5728;42.722;23.258;2022-10-31T04:11:36;12.97;;;7.57;;
11346;SDS011;5728;42.722;23.258;2022-10-31T04:14:06;13.20;;;7.53;;
11346;SDS011;5728;42.722;23.258;2022-10-31T04:16:35;12.57;;;7.40;;
11346;SDS011;5728;42.722;23.258;2022-10-31T04:19:01;11.63;;;7.57;;
11346;SDS011;5728;42.722;23.258;2022-10-31T04:21:30;15.97;;;7.87;;
11346;SDS011;5728;42.722;23.258;2022-10-31T04:23:57;13.90;;;7.57;;
11346;SDS011;5728;42.722;23.258;2022-10-31T04:26:24;16.80;;;8.30;;
11346;SDS011;5728;42.722;23.258;2022-10-31T04:28:51;15.63;;;8.43;;
11346;SDS011;5728;42.722;23.258;2022-10-31T04:31:18;15.20;;;7.97;;
11346;SDS011;5728;42.722;23.258;2022-10-31T04:33:45;15.97;;;8.40;;
11346;SDS011;5728;42.722;23.258;2022-10-31T04:36:11;11.07;;;7.87;;
11346;SDS011;5728;42.722;23.258;2022-10-31T04:38:39;14.73;;;7.93;;
11346;SDS011;5728;42.722;23.258;2022-10-31T04:41:06;12.47;;;7.33;;
11346;SDS011;5728;42.722;23.258;2022-10-31T04:43:33;18.30;;;7.93;;
11346;SDS011;5728;42.722;23.258;2022-10-31T04:46:00;15.47;;;8.57;;
11346;SDS011;5728;42.722;23.258;2022-10-31T04:48:27;16.80;;;8.03;;
11346;SDS011;5728;42.722;23.258;2022-10-31T04:50:57;12.97;;;8.27;;
11346;SDS011;5728;42.722;23.258;2022-10-31T04:53:24;12.67;;;8.13;;
11346;SDS011;5728;42.722;23.258;2022-10-31T04:55:53;11.57;;;8.57;;
11346;SDS011;5728;42.722;23.258;2022-10-31T04:58:19;17.03;;;8.17;;
11346;SDS011;5728;42.722;23.258;2022-10-31T05:00:46;14.77;;;7.90;;
11346;SDS011;5728;42.722;23.258;2022-10-31T05:03:13;18.40;;;8.57;;
11346;SDS011;5728;42.722;23.258;2022-10-31T05:05:41;14.83;;;9.00;;
11346;SDS011;5728;42.722;23.258;2022-10-31T05:08:07;12.53;;;7.67;;
11346;SDS011;5728;42.722;23.258;2022-10-31T05:10:34;16.40;;;8.98;;
11346;SDS011;5728;42.722;23.258;2022-10-31T05:13:02;20.87;;;9.37;;
11346;SDS011;5728;42.722;23.258;2022-10-31T05:15:30;17.60;;;9.03;;
11346;SDS011;5728;42.722;23.258;2022-10-31T05:17:57;14.50;;;8.97;;
11346;SDS011;5728;42.722;23.258;2022-10-31T05:20:25;13.90;;;7.87;;
11346;SDS011;5728;42.722;23.258;2022-10-31T05:22:53;15.40;;;7.57;;
11346;SDS011;5728;42.722;23.258;2022-10-31T05:25:22;16.73;;;8.67;;
11346;SDS011;5728;42.722;23.258;2022-10-31T05:27:51;11.63;;;8.87;;
11346;SDS011;5728;42.722;23.258;2022-10-31T05:30:21;16.10;;;9.60;;
11346;SDS011;5728;42.722;23.258;2022-10-31T05:32:49;18.37;;;8.80;;
11346;SDS011;5728;42.722;23.258;2022-10-31T05:35:18;15.10;;;8.30;;
11346;SDS011;5728;42.722;23.258;2022-10-31T05:37:49;14.67;;;9.30;;
11346;SDS011;5728;42.722;23.258;2022-10-31T05:40:16;15.87;;;10.67;;
11346;SDS011;5728;42.722;23.258;2022-10-31T05:42:44;20.70;;;10.00;;
11346;SDS011;5728;42.722;23.258;2022-10-31T05:45:12;27.30;;;10.37;;
11346;SDS011;5728;42.722;23.258;2022-10-31T05:47:41;16.87;;;9.10;;
11346;SDS011;5728;42.722;23.258;2022-10-31T05:50:09;18.43;;;9.00;;
11346;SDS011;5728;42.722;23.258;2022-10-31T05:52:36;19.87;;;8.90;;
11346;SDS011;5728;42.722;23.258;2022-10-31T05:55:03;19.53;;;9.00;;
11346;SDS011;5728;42.722;23.258;2022-10-31T05:57:31;20.33;;;9.57;;
11346;SDS011;5728;42.722;23.258;2022-10-31T05:59:58;30.57;;;11.30;;
11346;SDS011;5728;42.722;23.258;2022-10-31T06:02:25;34.33;;;11.23;;
11346;SDS011;5728;42.722;23.258;2022-10-31T06:04:58;35.33;;;12.07;;
11346;SDS011;5728;42.722;23.258;2022-10-31T06:07:24;23.80;;;11.07;;
11346;SDS011;5728;42.722;23.258;2022-10-31T06:09:51;26.50;;;12.07;;
11346;SDS011;5728;42.722;23.258;2022-10-31T06:12:18;21.80;;;11.77;;
11346;SDS011;5728;42.722;23.258;2022-10-31T06:14:45;25.40;;;11.80;;
11346;SDS011;5728;42.722;23.258;2022-10-31T06:17:11;26.03;;;10.60;;
11346;SDS011;5728;42.722;23.258;2022-10-31T06:19:38;20.97;;;11.43;;
11346;SDS011;5728;42.722;23.258;2022-10-31T06:22:06;30.17;;;12.07;;
11346;SDS011;5728;42.722;23.258;2022-10-31T06:24:33;26.83;;;12.07;;
11346;SDS011;5728;42.722;23.258;2022-10-31T06:26:59;16.57;;;11.27;;
11346;SDS011;5728;42.722;23.258;2022-10-31T06:29:26;26.33;;;11.10;;
11346;SDS011;5728;42.722;23.258;2022-10-31T06:31:53;20.83;;;11.17;;
11346;SDS011;5728;42.722;23.258;2022-10-31T06:34:20;18.70;;;11.50;;
11346;SDS011;5728;42.722;23.258;2022-10-31T06:36:46;23.83;;;10.77;;
11346;SDS011;5728;42.722;23.258;2022-10-31T06:39:15;26.97;;;10.97;;
11346;SDS011;5728;42.722;23.258;2022-10-31T06:41:41;15.20;;;9.63;;
11346;SDS011;5728;42.722;23.258;2022-10-31T06:44:08;16.30;;;9.03;;
11346;SDS011;5728;42.722;23.258;2022-10-31T06:46:35;12.13;;;8.77;;
11346;SDS011;5728;42.722;23.258;2022-10-31T06:49:01;16.63;;;9.40;;
11346;SDS011;5728;42.722;23.258;2022-10-31T06:51:28;18.67;;;9.37;;
11346;SDS011;5728;42.722;23.258;2022-10-31T06:53:55;15.23;;;9.73;;
11346;SDS011;5728;42.722;23.258;2022-10-31T06:56:23;12.98;;;9.20;;
11346;SDS011;5728;42.722;23.258;2022-10-31T06:58:50;14.47;;;10.03;;
11346;SDS011;5728;42.722;23.258;2022-10-31T07:01:18;17.20;;;9.90;;
11346;SDS011;5728;42.722;23.258;2022-10-31T07:03:44;19.90;;;9.97;;
11346;SDS011;5728;42.722;23.258;2022-10-31T07:06:11;20.92;;;12.77;;
11346;SDS011;5728;42.722;23.258;2022-10-31T07:08:38;17.07;;;11.20;;
11346;SDS011;5728;42.722;23.258;2022-10-31T07:11:04;17.70;;;11.43;;
11346;SDS011;5728;42.722;23.258;2022-10-31T07:13:33;19.60;;;12.53;;
11346;SDS011;5728;42.722;23.258;2022-10-31T07:16:00;21.20;;;11.63;;
11346;SDS011;5728;42.722;23.258;2022-10-31T07:18:28;20.90;;;12.35;;
11346;SDS011;5728;42.722;23.258;2022-10-31T07:20:55;20.10;;;11.60;;
11346;SDS011;5728;42.722;23.258;2022-10-31T07:23:21;23.92;;;12.23;;
11346;SDS011;5728;42.722;23.258;2022-10-31T07:25:48;17.05;;;11.32;;
11346;SDS011;5728;42.722;23.258;2022-10-31T07:28:20;23.65;;;12.57;;
11346;SDS011;5728;42.722;23.258;2022-10-31T07:30:50;22.85;;;13.18;;
11346;SDS011;5728;42.722;23.258;2022-10-31T07:33:17;23.98;;;12.48;;
11346;SDS011;5728;42.722;23.258;2022-10-31T07:35:44;21.02;;;14.00;;
11346;SDS011;5728;42.722;23.258;2022-10-31T07:38:11;28.02;;;13.77;;
11346;SDS011;5728;42.722;23.258;2022-10-31T07:40:40;27.10;;;12.60;;
11346;SDS011;5728;42.722;23.258;2022-10-31T07:43:07;25.48;;;13.75;;
11346;SDS011;5728;42.722;23.258;2022-10-31T07:45:34;24.42;;;12.15;;
11346;SDS011;5728;42.722;23.258;2022-10-31T07:48:03;20.60;;;12.52;;
11346;SDS011;5728;42.722;23.258;2022-10-31T07:50:30;18.25;;;10.90;;
11346;SDS011;5728;42.722;23.258;2022-10-31T07:52:59;20.52;;;11.23;;
11346;SDS011;5728;42.722;23.258;2022-10-31T07:55:27;18.13;;;10.32;;
11346;SDS011;5728;42.722;23.258;2022-10-31T07:58:00;26.17;;;11.07;;
11346;SDS011;5728;42.722;23.258;2022-10-31T08:00:28;20.23;;;11.00;;
11346;SDS011;5728;42.722;23.258;2022-10-31T08:02:56;17.77;;;11.13;;
11346;SDS011;5728;42.722;23.258;2022-10-31T08:05:25;22.80;;;12.27;;
11346;SDS011;5728;42.722;23.258;2022-10-31T08:07:52;13.05;;;9.45;;
11346;SDS011;5728;42.722;23.258;2022-10-31T08:10:19;16.48;;;10.95;;
11346;SDS011;5728;42.722;23.258;2022-10-31T08:12:46;21.05;;;10.95;;
11346;SDS011;5728;42.722;23.258;2022-10-31T08:15:12;16.10;;;10.57;;
11346;SDS011;5728;42.722;23.258;2022-10-31T08:17:39;20.35;;;10.55;;
11346;SDS011;5728;42.722;23.258;2022-10-31T08:20:06;23.20;;;10.82;;
11346;SDS011;5728;42.722;23.258;2022-10-31T08:22:36;20.95;;;11.18;;
11346;SDS011;5728;42.722;23.258;2022-10-31T08:25:02;13.93;;;9.32;;
11346;SDS011;5728;42.722;23.258;2022-10-31T08:27:29;19.35;;;11.15;;
11346;SDS011;5728;42.722;23.258;2022-10-31T08:29:56;18.90;;;9.82;;
11346;SDS011;5728;42.722;23.258;2022-10-31T08:32:23;15.10;;;9.80;;
11346;SDS011;5728;42.722;23.258;2022-10-31T08:34:50;12.38;;;8.88;;
11346;SDS011;5728;42.722;23.258;2022-10-31T08:37:16;15.02;;;9.82;;
11346;SDS011;5728;42.722;23.258;2022-10-31T08:39:46;15.95;;;9.55;;
11346;SDS011;5728;42.722;23.258;2022-10-31T08:42:13;14.07;;;9.02;;
11346;SDS011;5728;42.722;23.258;2022-10-31T08:44:39;13.35;;;8.23;;
11346;SDS011;5728;42.722;23.258;2022-10-31T08:47:06;14.75;;;8.50;;
11346;SDS011;5728;42.722;23.258;2022-10-31T08:49:33;17.77;;;9.63;;
11346;SDS011;5728;42.722;23.258;2022-10-31T08:52:00;19.48;;;8.05;;
11346;SDS011;5728;42.722;23.258;2022-10-31T08:54:26;11.13;;;8.52;;
11346;SDS011;5728;42.722;23.258;2022-10-31T08:56:55;17.45;;;9.48;;
11346;SDS011;5728;42.722;23.258;2022-10-31T08:59:22;11.57;;;7.97;;
11346;SDS011;5728;42.722;23.258;2022-10-31T09:01:49;11.02;;;8.77;;
11346;SDS011;5728;42.722;23.258;2022-10-31T09:04:15;16.10;;;8.55;;
11346;SDS011;5728;42.722;23.258;2022-10-31T09:06:42;15.80;;;7.85;;
11346;SDS011;5728;42.722;23.258;2022-10-31T09:09:09;14.90;;;8.90;;
11346;SDS011;5728;42.722;23.258;2022-10-31T09:11:36;13.05;;;7.78;;
11346;SDS011;5728;42.722;23.258;2022-10-31T09:14:04;12.52;;;7.70;;
11346;SDS011;5728;42.722;23.258;2022-10-31T09:16:31;15.80;;;7.63;;
11346;SDS011;5728;42.722;23.258;2022-10-31T09:18:58;25.40;;;8.25;;
11346;SDS011;5728;42.722;23.258;2022-10-31T09:21:25;12.07;;;7.45;;
11346;SDS011;5728;42.722;23.258;2022-10-31T09:23:51;15.95;;;7.82;;
11346;SDS011;5728;42.722;23.258;2022-10-31T09:26:19;16.00;;;8.68;;
11346;SDS011;5728;42.722;23.258;2022-10-31T09:28:48;10.65;;;6.95;;
11346;SDS011;5728;42.722;23.258;2022-10-31T09:31:16;15.57;;;6.50;;
11346;SDS011;5728;42.722;23.258;2022-10-31T09:33:43;12.68;;;7.63;;
11346;SDS011;5728;42.722;23.258;2022-10-31T09:36:09;11.85;;;6.97;;
11346;SDS011;5728;42.722;23.258;2022-10-31T09:38:36;12.43;;;6.72;;
11346;SDS011;5728;42.722;23.258;2022-10-31T09:41:05;12.98;;;6.80;;
11346;SDS011;5728;42.722;23.258;2022-10-31T09:43:43;8.57;;;6.28;;
11346;SDS011;5728;42.722;23.258;2022-10-31T09:46:18;8.50;;;6.05;;
11346;SDS011;5728;42.722;23.258;2022-10-31T09:48:59;12.23;;;6.22;;
11346;SDS011;5728;42.722;23.258;2022-10-31T09:51:50;8.40;;;4.95;;
11346;SDS011;5728;42.722;23.258;2022-10-31T09:54:24;15.60;;;7.57;;
11346;SDS011;5728;42.722;23.258;2022-10-31T09:56:56;12.70;;;5.97;;
11346;SDS011;5728;42.722;23.258;2022-10-31T09:59:26;13.43;;;5.35;;
11346;SDS011;5728;42.722;23.258;2022-10-31T10:01:58;9.20;;;5.25;;
11346;SDS011;5728;42.722;23.258;2022-10-31T10:04:30;9.85;;;5.45;;
11346;SDS011;5728;42.722;23.258;2022-10-31T10:07:06;7.88;;;5.50;;
11346;SDS011;5728;42.722;23.258;2022-10-31T10:09:40;7.93;;;5.78;;
11346;SDS011;5728;42.722;23.258;2022-10-31T10:12:09;10.93;;;5.38;;
11346;SDS011;5728;42.722;23.258;2022-10-31T10:14:50;7.75;;;5.60;;
11346;SDS011;5728;42.722;23.258;2022-10-31T10:17:32;11.48;;;5.22;;
11346;SDS011;5728;42.722;23.258;2022-10-31T10:20:12;6.05;;;4.80;;
11346;SDS011;5728;42.722;23.258;2022-10-31T10:22:50;15.95;;;5.43;;
11346;SDS011;5728;42.722;23.258;2022-10-31T10:25:22;14.55;;;5.22;;
11346;SDS011;5728;42.722;23.258;2022-10-31T10:27:52;7.25;;;4.75;;
11346;SDS011;5728;42.722;23.258;2022-10-31T10:30:29;13.15;;;4.40;;
11346;SDS011;5728;42.722;23.258;2022-10-31T10:33:04;5.20;;;3.72;;
11346;SDS011;5728;42.722;23.258;2022-10-31T10:35:39;5.43;;;4.03;;
11346;SDS011;5728;42.722;23.258;2022-10-31T10:38:15;5.65;;;4.00;;
11346;SDS011;5728;42.722;23.258;2022-10-31T10:40:48;7.72;;;3.95;;
11346;SDS011;5728;42.722;23.258;2022-10-31T10:43:20;9.25;;;4.20;;
11346;SDS011;5728;42.722;23.258;2022-10-31T10:45:50;8.27;;;4.50;;
11346;SDS011;5728;42.722;23.258;2022-10-31T10:48:44;6.45;;;4.35;;
11346;SDS011;5728;42.722;23.258;2022-10-31T10:51:20;7.82;;;4.10;;
11346;SDS011;5728;42.722;23.258;2022-10-31T10:54:01;6.93;;;3.70;;
11346;SDS011;5728;42.722;23.258;2022-10-31T10:56:45;4.28;;;3.65;;
11346;SDS011;5728;42.722;23.258;2022-10-31T10:59:21;6.97;;;4.10;;
11346;SDS011;5728;42.722;23.258;2022-10-31T11:01:49;5.68;;;3.40;;
11346;SDS011;5728;42.722;23.258;2022-10-31T11:04:24;9.90;;;3.80;;
11346;SDS011;5728;42.722;23.258;2022-10-31T11:06:57;7.50;;;3.70;;
11346;SDS011;5728;42.722;23.258;2022-10-31T11:09:28;6.50;;;4.53;;
11346;SDS011;5728;42.722;23.258;2022-10-31T11:11:55;7.95;;;3.88;;
11346;SDS011;5728;42.722;23.258;2022-10-31T11:14:23;9.27;;;4.28;;
11346;SDS011;5728;42.722;23.258;2022-10-31T11:16:52;7.75;;;3.47;;
11346;SDS011;5728;42.722;23.258;2022-10-31T11:19:23;8.93;;;4.38;;
11346;SDS011;5728;42.722;23.258;2022-10-31T11:21:53;6.40;;;4.47;;
11346;SDS011;5728;42.722;23.258;2022-10-31T11:24:20;8.40;;;3.45;;
11346;SDS011;5728;42.722;23.258;2022-10-31T11:26:51;12.18;;;3.60;;
11346;SDS011;5728;42.722;23.258;2022-10-31T11:29:28;6.53;;;3.90;;
11346;SDS011;5728;42.722;23.258;2022-10-31T11:31:56;9.43;;;4.00;;
11346;SDS011;5728;42.722;23.258;2022-10-31T11:34:30;8.02;;;3.65;;
11346;SDS011;5728;42.722;23.258;2022-10-31T11:37:01;7.68;;;3.80;;
11346;SDS011;5728;42.722;23.258;2022-10-31T11:39:39;6.13;;;3.80;;
11346;SDS011;5728;42.722;23.258;2022-10-31T11:42:10;7.30;;;3.47;;
11346;SDS011;5728;42.722;23.258;2022-10-31T11:44:40;4.00;;;3.28;;
11346;SDS011;5728;42.722;23.258;2022-10-31T11:47:09;6.25;;;3.33;;
11346;SDS011;5728;42.722;23.258;2022-10-31T11:49:42;6.55;;;3.90;;
11346;SDS011;5728;42.722;23.258;2022-10-31T11:52:15;9.40;;;3.72;;
11346;SDS011;5728;42.722;23.258;2022-10-31T11:54:45;5.13;;;3.53;;
11346;SDS011;5728;42.722;23.258;2022-10-31T11:57:22;5.90;;;3.67;;
11346;SDS011;5728;42.722;23.258;2022-10-31T11:59:53;8.40;;;3.80;;
11346;SDS011;5728;42.722;23.258;2022-10-31T12:02:21;5.30;;;3.25;;
11346;SDS011;5728;42.722;23.258;2022-10-31T12:04:51;6.05;;;3.75;;
11346;SDS011;5728;42.722;23.258;2022-10-31T12:07:24;7.57;;;3.65;;
11346;SDS011;5728;42.722;23.258;2022-10-31T12:09:50;8.00;;;3.95;;
11346;SDS011;5728;42.722;23.258;2022-10-31T12:15:27;10.13;;;3.83;;
11346;SDS011;5728;42.722;23.258;2022-10-31T12:18:08;8.20;;;4.35;;
11346;SDS011;5728;42.722;23.258;2022-10-31T12:20:53;6.45;;;4.00;;
11346;SDS011;5728;42.722;23.258;2022-10-31T12:23:29;5.78;;;3.78;;
11346;SDS011;5728;42.722;23.258;2022-10-31T12:26:11;7.22;;;3.85;;
11346;SDS011;5728;42.722;23.258;2022-10-31T12:28:47;6.78;;;4.10;;
11346;SDS011;5728;42.722;23.258;2022-10-31T12:31:29;6.65;;;3.90;;
11346;SDS011;5728;42.722;23.258;2022-10-31T12:34:14;10.20;;;3.72;;
11346;SDS011;5728;42.722;23.258;2022-10-31T12:37:10;9.02;;;3.40;;
11346;SDS011;5728;42.722;23.258;2022-10-31T12:39:49;5.57;;;3.50;;
11346;SDS011;5728;42.722;23.258;2022-10-31T12:42:32;7.35;;;3.83;;
11346;SDS011;5728;42.722;23.258;2022-10-31T12:45:15;6.75;;;4.45;;
11346;SDS011;5728;42.722;23.258;2022-10-31T12:47:59;5.68;;;3.50;;
11346;SDS011;5728;42.722;23.258;2022-10-31T12:50:51;7.93;;;4.28;;
11346;SDS011;5728;42.722;23.258;2022-10-31T12:53:35;8.93;;;3.80;;
11346;SDS011;5728;42.722;23.258;2022-10-31T12:56:18;11.48;;;3.97;;
11346;SDS011;5728;42.722;23.258;2022-10-31T12:59:08;8.45;;;4.07;;
11346;SDS011;5728;42.722;23.258;2022-10-31T13:01:42;7.97;;;3.90;;
11346;SDS011;5728;42.722;23.258;2022-10-31T13:04:17;9.90;;;3.97;;
11346;SDS011;5728;42.722;23.258;2022-10-31T13:06:48;9.90;;;4.32;;
11346;SDS011;5728;42.722;23.258;2022-10-31T13:09:21;7.50;;;3.80;;
11346;SDS011;5728;42.722;23.258;2022-10-31T13:11:54;8.40;;;4.20;;
11346;SDS011;5728;42.722;23.258;2022-10-31T13:14:25;10.63;;;3.60;;
11346;SDS011;5728;42.722;23.258;2022-10-31T13:16:56;6.63;;;3.78;;
11346;SDS011;5728;42.722;23.258;2022-10-31T13:19:25;8.43;;;3.88;;
11346;SDS011;5728;42.722;23.258;2022-10-31T13:21:57;9.27;;;3.85;;
11346;SDS011;5728;42.722;23.258;2022-10-31T13:24:33;7.63;;;4.22;;
11346;SDS011;5728;42.722;23.258;2022-10-31T13:27:09;6.70;;;3.55;;
11346;SDS011;5728;42.722;23.258;2022-10-31T13:29:41;12.00;;;4.03;;
11346;SDS011;5728;42.722;23.258;2022-10-31T13:32:15;8.70;;;3.75;;
11346;SDS011;5728;42.722;23.258;2022-10-31T13:34:42;7.03;;;3.33;;
11346;SDS011;5728;42.722;23.258;2022-10-31T13:37:16;14.35;;;3.92;;
11346;SDS011;5728;42.722;23.258;2022-10-31T13:39:59;9.35;;;3.75;;
11346;SDS011;5728;42.722;23.258;2022-10-31T13:42:40;12.13;;;3.58;;
11346;SDS011;5728;42.722;23.258;2022-10-31T13:45:16;9.70;;;3.25;;
11346;SDS011;5728;42.722;23.258;2022-10-31T13:47:54;8.27;;;3.80;;
11346;SDS011;5728;42.722;23.258;2022-10-31T13:50:23;10.75;;;3.42;;
11346;SDS011;5728;42.722;23.258;2022-10-31T13:52:51;9.02;;;3.60;;
11346;SDS011;5728;42.722;23.258;2022-10-31T13:55:35;6.05;;;2.88;;
11346;SDS011;5728;42.722;23.258;2022-10-31T13:58:04;7.53;;;2.85;;
11346;SDS011;5728;42.722;23.258;2022-10-31T14:00:42;10.73;;;2.83;;
11346;SDS011;5728;42.722;23.258;2022-10-31T14:03:16;8.70;;;2.33;;
11346;SDS011;5728;42.722;23.258;2022-10-31T14:05:51;6.78;;;2.80;;
11346;SDS011;5728;42.722;23.258;2022-10-31T14:08:20;11.45;;;2.53;;
11346;SDS011;5728;42.722;23.258;2022-10-31T14:10:51;10.52;;;2.53;;
11346;SDS011;5728;42.722;23.258;2022-10-31T14:13:20;11.05;;;2.33;;
11346;SDS011;5728;42.722;23.258;2022-10-31T14:15:53;8.43;;;2.83;;
11346;SDS011;5728;42.722;23.258;2022-10-31T14:18:22;12.70;;;3.00;;
11346;SDS011;5728;42.722;23.258;2022-10-31T14:20:50;7.78;;;2.38;;
11346;SDS011;5728;42.722;23.258;2022-10-31T14:23:35;10.85;;;2.83;;
11346;SDS011;5728;42.722;23.258;2022-10-31T14:26:20;9.40;;;2.33;;
11346;SDS011;5728;42.722;23.258;2022-10-31T14:28:58;12.38;;;3.15;;
11346;SDS011;5728;42.722;23.258;2022-10-31T14:31:27;10.20;;;2.30;;
11346;SDS011;5728;42.722;23.258;2022-10-31T14:34:00;9.02;;;2.17;;
11346;SDS011;5728;42.722;23.258;2022-10-31T14:36:33;8.55;;;2.90;;
11346;SDS011;5728;42.722;23.258;2022-10-31T14:39:11;16.67;;;9.32;;
11346;SDS011;5728;42.722;23.258;2022-10-31T14:41:49;9.10;;;3.00;;
11346;SDS011;5728;42.722;23.258;2022-10-31T14:47:20;11.65;;;4.72;;
11346;SDS011;5728;42.722;23.258;2022-10-31T14:50:02;7.53;;;3.00;;
11346;SDS011;5728;42.722;23.258;2022-10-31T14:52:44;7.00;;;2.20;;
11346;SDS011;5728;42.722;23.258;2022-10-31T14:55:13;8.13;;;2.55;;
11346;SDS011;5728;42.722;23.258;2022-10-31T14:57:44;12.32;;;3.25;;
11346;SDS011;5728;42.722;23.258;2022-10-31T15:00:15;7.28;;;3.03;;
11346;SDS011;5728;42.722;23.258;2022-10-31T15:02:46;11.25;;;3.10;;
11346;SDS011;5728;42.722;23.258;2022-10-31T15:05:21;12.85;;;3.25;;
11346;SDS011;5728;42.722;23.258;2022-10-31T15:07:49;16.35;;;3.83;;
11346;SDS011;5728;42.722;23.258;2022-10-31T15:10:21;12.32;;;3.90;;
11346;SDS011;5728;42.722;23.258;2022-10-31T15:12:51;15.07;;;4.60;;
11346;SDS011;5728;42.722;23.258;2022-10-31T15:15:20;14.15;;;4.78;;